createdAt,value
2022-09-11T00:01:03.761Z,16.60
2022-09-11T00:03:32.074Z,15.55
2022-09-11T00:06:04.653Z,15.32
2022-09-11T00:08:32.968Z,15.73
2022-09-11T00:11:05.400Z,15.50
2022-09-11T00:13:33.859Z,15.13
2022-09-11T00:16:03.239Z,16.00
2022-09-11T00:18:31.627Z,17.55
2022-09-11T00:21:00.292Z,15.63
2022-09-11T00:23:30.210Z,18.85
2022-09-11T00:26:03.336Z,16.20
2022-09-11T00:28:31.740Z,17.77
2022-09-11T00:31:00.858Z,15.48
2022-09-11T00:33:29.696Z,13.60
2022-09-11T00:35:59.384Z,13.80
2022-09-11T00:38:28.255Z,15.40
2022-09-11T00:40:59.297Z,15.52
2022-09-11T00:43:28.154Z,13.68
2022-09-11T00:45:59.946Z,16.92
2022-09-11T00:48:30.074Z,15.00
2022-09-11T00:50:59.495Z,15.80
2022-09-11T00:53:30.331Z,14.80
2022-09-11T00:56:02.853Z,15.45
2022-09-11T00:58:34.139Z,16.17
2022-09-11T01:01:03.300Z,15.18
2022-09-11T01:03:32.118Z,17.40
2022-09-11T01:06:01.934Z,15.05
2022-09-11T01:08:30.231Z,15.85
2022-09-11T01:11:06.693Z,16.77
2022-09-11T01:13:37.798Z,18.77
2022-09-11T01:16:09.977Z,18.63
2022-09-11T01:18:41.303Z,16.77
2022-09-11T01:21:20.712Z,19.08
2022-09-11T01:24:04.228Z,15.85
2022-09-11T01:26:39.787Z,20.27
2022-09-11T01:29:14.314Z,14.50
2022-09-11T01:31:45.917Z,16.55
2022-09-11T01:34:17.861Z,16.27
2022-09-11T01:36:48.393Z,21.05
2022-09-11T01:39:20.755Z,16.00
2022-09-11T01:41:50.297Z,17.10
2022-09-11T01:44:23.005Z,17.67
2022-09-11T01:46:53.164Z,17.35
2022-09-11T01:49:23.688Z,15.48
2022-09-11T01:51:53.857Z,13.95
2022-09-11T01:54:23.516Z,16.92
2022-09-11T01:56:53.563Z,17.10
2022-09-11T01:59:26.110Z,18.13
2022-09-11T02:01:56.609Z,16.13
2022-09-11T02:04:27.475Z,17.48
2022-09-11T02:07:02.273Z,15.82
2022-09-11T02:09:33.950Z,15.48
2022-09-11T02:12:04.976Z,16.40
2022-09-11T02:14:38.748Z,17.67
2022-09-11T02:17:10.811Z,18.77
2022-09-11T02:19:39.610Z,17.42
2022-09-11T02:22:08.231Z,16.83
2022-09-11T02:24:36.541Z,18.23
2022-09-11T02:27:06.624Z,17.30
2022-09-11T02:29:36.559Z,19.55
2022-09-11T02:32:05.348Z,24.70
2022-09-11T02:34:35.262Z,25.33
2022-09-11T02:37:12.974Z,24.75
2022-09-11T02:39:57.420Z,23.25
2022-09-11T02:42:36.705Z,24.23
2022-09-11T02:45:12.255Z,26.13
2022-09-11T02:47:44.091Z,26.65
2022-09-11T02:50:15.726Z,29.08
2022-09-11T02:52:49.109Z,36.90
2022-09-11T02:55:20.801Z,30.58
2022-09-11T02:57:53.386Z,29.92
2022-09-11T03:00:23.142Z,38.63
2022-09-11T03:02:53.652Z,35.67
2022-09-11T03:05:23.236Z,39.38
2022-09-11T03:07:51.869Z,42.40
2022-09-11T03:10:20.273Z,39.63
2022-09-11T03:12:48.621Z,44.03
2022-09-11T03:15:17.464Z,41.25
2022-09-11T03:17:47.161Z,40.58
2022-09-11T03:20:15.783Z,46.30
2022-09-11T03:22:44.140Z,45.58
2022-09-11T03:25:12.740Z,47.30
2022-09-11T03:27:42.109Z,42.50
2022-09-11T03:30:11.394Z,39.53
2022-09-11T03:32:39.733Z,45.22
2022-09-11T03:35:10.014Z,44.53
2022-09-11T03:37:38.332Z,40.55
2022-09-11T03:40:07.219Z,46.90
2022-09-11T03:42:35.634Z,38.03
2022-09-11T03:45:04.120Z,44.15
2022-09-11T03:47:32.502Z,44.13
2022-09-11T03:50:00.839Z,41.83
2022-09-11T03:52:31.280Z,45.88
2022-09-11T03:55:00.368Z,45.75
2022-09-11T03:57:28.696Z,42.47
2022-09-11T03:59:57.038Z,40.30
2022-09-11T04:02:25.486Z,43.97
2022-09-11T04:04:53.794Z,44.83
2022-09-11T04:07:22.490Z,44.50
2022-09-11T04:09:52.234Z,46.03
2022-09-11T04:12:20.658Z,51.38
2022-09-11T04:14:50.356Z,49.67
2022-09-11T04:17:19.162Z,51.03
2022-09-11T04:19:47.466Z,57.25
2022-09-11T04:22:15.857Z,56.03
2022-09-11T04:24:44.198Z,67.05
2022-09-11T04:27:13.899Z,71.75
2022-09-11T04:29:43.049Z,69.97
2022-09-11T04:32:11.803Z,68.97
2022-09-11T04:34:40.118Z,63.95
2022-09-11T04:37:08.712Z,76.20
2022-09-11T04:39:37.038Z,86.45
2022-09-11T04:42:05.620Z,83.28
2022-09-11T04:44:35.293Z,80.15
2022-09-11T04:47:03.750Z,76.47
2022-09-11T04:49:33.044Z,83.93
2022-09-11T04:52:02.891Z,71.28
2022-09-11T04:54:31.235Z,83.90
2022-09-11T04:56:59.577Z,78.97
2022-09-11T04:59:27.892Z,77.35
2022-09-11T05:01:57.822Z,85.13
2022-09-11T05:04:26.643Z,83.75
2022-09-11T05:06:55.059Z,99.65
2022-09-11T05:09:24.210Z,88.15
2022-09-11T05:11:52.579Z,89.32
2022-09-11T05:14:20.901Z,91.63
2022-09-11T05:16:49.296Z,93.22
2022-09-11T05:19:19.117Z,104.28
2022-09-11T05:21:48.166Z,103.05
2022-09-11T05:24:16.490Z,105.72
2022-09-11T05:26:45.061Z,103.55
2022-09-11T05:29:15.113Z,120.88
2022-09-11T05:31:43.827Z,117.60
2022-09-11T05:34:12.306Z,126.60
2022-09-11T05:36:42.113Z,124.88
2022-09-11T05:39:11.271Z,111.50
2022-09-11T05:41:39.622Z,119.90
2022-09-11T05:44:08.003Z,116.05
2022-09-11T05:46:36.345Z,112.40
2022-09-11T05:49:05.791Z,120.43
2022-09-11T05:51:35.917Z,116.13
2022-09-11T05:54:06.058Z,127.55
2022-09-11T05:56:34.474Z,116.38
2022-09-11T05:59:03.451Z,116.65
2022-09-11T06:01:32.147Z,110.28
2022-09-11T06:04:01.790Z,121.72
2022-09-11T06:06:30.137Z,151.57
2022-09-11T06:08:58.475Z,131.85
2022-09-11T06:11:29.331Z,134.10
2022-09-11T06:13:57.656Z,140.05
2022-09-11T06:16:26.369Z,128.60
2022-09-11T06:18:55.262Z,125.25
2022-09-11T06:21:24.555Z,118.55
2022-09-11T06:23:53.991Z,116.88
2022-09-11T06:26:23.723Z,130.35
2022-09-11T06:28:53.695Z,140.15
2022-09-11T06:31:22.954Z,137.95
2022-09-11T06:33:51.346Z,129.63
2022-09-11T06:36:20.403Z,148.20
2022-09-11T06:38:49.104Z,137.07
2022-09-11T06:41:19.121Z,152.50
2022-09-11T06:43:47.475Z,147.73
2022-09-11T06:46:19.067Z,149.77
2022-09-11T06:48:48.245Z,134.00
2022-09-11T06:51:17.502Z,145.27
2022-09-11T06:53:47.390Z,126.32
2022-09-11T06:56:16.700Z,123.60
2022-09-11T06:58:45.292Z,126.05
2022-09-11T07:01:14.481Z,133.48
2022-09-11T07:03:46.059Z,118.07
2022-09-11T07:06:14.826Z,108.95
2022-09-11T07:08:43.242Z,120.43
2022-09-11T07:11:12.897Z,126.47
2022-09-11T07:13:41.917Z,127.28
2022-09-11T07:16:12.155Z,121.28
2022-09-11T07:18:41.412Z,135.70
2022-09-11T07:21:12.363Z,124.13
2022-09-11T07:23:40.770Z,128.93
2022-09-11T07:26:10.839Z,134.40
2022-09-11T07:28:39.536Z,129.20
2022-09-11T07:31:10.605Z,129.60
2022-09-11T07:33:39.388Z,140.80
2022-09-11T07:36:12.095Z,130.43
2022-09-11T07:38:42.814Z,151.85
2022-09-11T07:41:12.205Z,138.98
2022-09-11T07:43:41.849Z,140.52
2022-09-11T07:46:12.149Z,139.30
2022-09-11T07:48:40.915Z,132.60
2022-09-11T07:51:09.851Z,145.60
2022-09-11T07:53:39.410Z,140.80
2022-09-11T07:56:10.398Z,132.50
2022-09-11T07:58:39.573Z,130.85
2022-09-11T08:01:08.873Z,131.20
2022-09-11T08:03:37.883Z,144.18
2022-09-11T08:06:08.048Z,137.18
2022-09-11T08:08:37.761Z,137.85
2022-09-11T08:11:06.988Z,145.18
2022-09-11T08:13:37.149Z,146.90
2022-09-11T08:16:05.723Z,144.32
2022-09-11T08:18:35.261Z,146.27
2022-09-11T08:21:04.567Z,160.57
2022-09-11T08:23:33.236Z,161.55
2022-09-11T08:26:08.213Z,163.73
2022-09-11T08:28:38.629Z,159.73
2022-09-11T08:31:07.573Z,149.32
2022-09-11T08:33:36.019Z,149.00
2022-09-11T08:36:05.259Z,139.13
2022-09-11T08:38:33.954Z,141.45
2022-09-11T08:41:17.772Z,141.60
2022-09-11T08:43:51.901Z,132.23
2022-09-11T08:46:21.977Z,126.13
2022-09-11T08:48:54.247Z,103.50
2022-09-11T08:51:22.655Z,108.18
2022-09-11T08:53:51.494Z,95.43
2022-09-11T08:56:22.864Z,96.03
2022-09-11T08:59:02.817Z,86.93
2022-09-11T09:01:37.176Z,80.25
2022-09-11T09:04:11.616Z,79.22
2022-09-11T09:06:49.644Z,82.65
2022-09-11T09:09:22.859Z,93.00
2022-09-11T09:11:56.843Z,89.35
2022-09-11T09:14:41.783Z,106.05
2022-09-11T09:17:11.728Z,105.82
2022-09-11T09:19:43.233Z,100.70
2022-09-11T09:22:14.931Z,90.25
2022-09-11T09:24:44.528Z,84.50
2022-09-11T09:27:17.625Z,83.05
2022-09-11T09:29:47.816Z,87.07
2022-09-11T09:32:21.024Z,82.68
2022-09-11T09:34:51.281Z,77.00
2022-09-11T09:37:21.654Z,85.88
2022-09-11T09:39:50.338Z,79.03
2022-09-11T09:42:33.522Z,88.15
2022-09-11T09:45:12.551Z,88.55
2022-09-11T09:47:44.521Z,87.38
2022-09-11T09:50:18.388Z,90.30
2022-09-11T09:52:46.852Z,89.15
2022-09-11T09:55:17.179Z,92.90
2022-09-11T09:57:45.817Z,92.90
2022-09-11T10:00:19.822Z,85.03
2022-09-11T10:02:53.687Z,74.25
2022-09-11T10:05:26.118Z,75.25
2022-09-11T10:07:55.761Z,77.20
2022-09-11T10:10:34.873Z,68.40
2022-09-11T10:13:18.728Z,64.35
2022-09-11T10:15:50.013Z,62.63
2022-09-11T10:18:25.333Z,59.83
2022-09-11T10:20:54.770Z,59.20
2022-09-11T10:23:24.459Z,49.28
2022-09-11T10:25:53.466Z,52.75
2022-09-11T10:28:26.603Z,53.85
2022-09-11T10:31:00.297Z,54.25
2022-09-11T10:33:29.978Z,52.67
2022-09-11T10:35:58.809Z,49.38
2022-09-11T10:38:31.356Z,50.90
2022-09-11T10:41:03.768Z,51.45
2022-09-11T10:43:36.143Z,49.25
2022-09-11T10:46:07.016Z,51.83
2022-09-11T10:48:35.560Z,50.72
2022-09-11T10:51:07.548Z,50.38
2022-09-11T10:53:38.173Z,53.80
2022-09-11T10:56:07.054Z,46.88
2022-09-11T10:58:37.588Z,52.97
2022-09-11T11:01:09.548Z,47.55
2022-09-11T11:03:38.289Z,48.58
2022-09-11T11:06:13.640Z,44.92
2022-09-11T11:08:58.758Z,39.70
2022-09-11T11:11:33.410Z,34.58
2022-09-11T11:14:17.413Z,38.10
2022-09-11T11:16:52.411Z,33.53
2022-09-11T11:19:28.782Z,32.72
2022-09-11T11:22:02.814Z,32.83
2022-09-11T11:24:39.404Z,31.75
2022-09-11T11:27:20.259Z,32.80
2022-09-11T11:29:57.361Z,32.88
2022-09-11T11:32:39.399Z,33.97
2022-09-11T11:35:17.590Z,34.78
2022-09-11T11:37:47.432Z,34.15
2022-09-11T11:40:19.537Z,38.38
2022-09-11T11:42:52.837Z,32.42
2022-09-11T11:45:25.861Z,32.83
2022-09-11T11:47:56.738Z,32.25
2022-09-11T11:50:31.617Z,30.80
2022-09-11T11:53:04.540Z,26.88
2022-09-11T11:55:39.952Z,26.33
2022-09-11T11:58:14.171Z,24.15
2022-09-11T12:00:46.227Z,26.48
2022-09-11T12:03:20.137Z,22.40
2022-09-11T12:05:48.621Z,22.17
2022-09-11T12:08:17.711Z,21.40
2022-09-11T12:10:48.814Z,22.73
2022-09-11T12:13:18.467Z,24.17
2022-09-11T12:16:02.681Z,24.00
2022-09-11T12:18:33.165Z,22.25
2022-09-11T12:21:20.033Z,21.00
2022-09-11T12:24:07.263Z,21.83
2022-09-11T12:26:35.600Z,20.60
2022-09-11T12:29:20.249Z,19.45
2022-09-11T12:32:07.729Z,19.23
2022-09-11T12:34:50.903Z,18.85
2022-09-11T12:37:24.758Z,18.10
2022-09-11T12:39:54.480Z,16.63
2022-09-11T12:42:41.216Z,17.35
2022-09-11T12:45:31.450Z,20.25
2022-09-11T12:48:04.956Z,22.60
2022-09-11T12:50:33.740Z,23.17
2022-09-11T12:53:04.599Z,19.95
2022-09-11T12:55:34.654Z,22.67
2022-09-11T12:58:05.228Z,25.50
2022-09-11T13:00:36.612Z,22.50
2022-09-11T13:03:05.833Z,26.42
2022-09-11T13:05:37.785Z,25.40
2022-09-11T13:08:10.969Z,24.38
2022-09-11T13:10:39.975Z,26.27
2022-09-11T13:13:12.723Z,25.23
2022-09-11T13:15:42.322Z,28.95
2022-09-11T13:18:40.580Z,28.02
2022-09-11T13:21:15.674Z,25.38
2022-09-11T13:23:46.724Z,28.65
2022-09-11T13:26:17.008Z,24.35
2022-09-11T13:28:46.921Z,24.80
2022-09-11T13:31:19.446Z,23.80
2022-09-11T13:33:52.014Z,24.65
2022-09-11T13:36:22.944Z,23.13
2022-09-11T13:38:56.177Z,24.15
2022-09-11T13:41:25.848Z,22.35
2022-09-11T13:43:58.273Z,22.27
2022-09-11T13:46:27.929Z,21.92
2022-09-11T13:48:59.253Z,22.13
2022-09-11T13:51:31.310Z,18.25
2022-09-11T13:54:05.962Z,18.17
2022-09-11T13:56:47.003Z,17.15
2022-09-11T13:59:35.244Z,15.93
2022-09-11T14:02:05.028Z,14.65
2022-09-11T14:04:34.099Z,13.63
2022-09-11T14:07:02.857Z,14.23
2022-09-11T14:09:32.586Z,15.60
2022-09-11T14:12:04.063Z,13.25
2022-09-11T14:14:34.201Z,16.15
2022-09-11T14:17:02.723Z,17.10
2022-09-11T14:19:32.178Z,15.98
2022-09-11T14:22:01.250Z,16.33
2022-09-11T14:24:31.658Z,18.77
2022-09-11T14:27:02.361Z,16.80
2022-09-11T14:29:31.515Z,15.98
2022-09-11T14:32:14.709Z,16.38
2022-09-11T14:34:43.060Z,14.05
2022-09-11T14:37:13.283Z,14.43
2022-09-11T14:39:42.431Z,11.85
2022-09-11T14:42:14.662Z,14.38
2022-09-11T14:44:43.685Z,13.55
2022-09-11T14:47:14.831Z,13.82
2022-09-11T14:49:43.208Z,15.50
2022-09-11T14:52:14.468Z,12.85
2022-09-11T14:54:42.936Z,13.65
2022-09-11T14:57:19.818Z,15.02
2022-09-11T14:59:49.117Z,12.15
2022-09-11T15:02:18.986Z,12.63
2022-09-11T15:04:47.425Z,11.68
2022-09-11T15:07:16.515Z,10.57
2022-09-11T15:09:44.993Z,10.60
2022-09-11T15:12:15.818Z,10.93
2022-09-11T15:14:56.621Z,10.75
2022-09-11T15:17:25.995Z,11.95
2022-09-11T15:19:54.352Z,12.32
2022-09-11T15:22:23.227Z,12.52
2022-09-11T15:24:51.633Z,11.93
2022-09-11T15:27:23.257Z,12.48
2022-09-11T15:29:51.586Z,12.63
2022-09-11T15:32:21.218Z,11.63
2022-09-11T15:34:49.636Z,13.98
2022-09-11T15:37:18.179Z,12.15
2022-09-11T15:39:46.550Z,13.18
2022-09-11T15:42:14.934Z,13.55
2022-09-11T15:44:46.071Z,13.73
2022-09-11T15:47:14.512Z,13.93
2022-09-11T15:49:44.369Z,13.45
2022-09-11T15:52:12.738Z,13.68
2022-09-11T15:54:41.113Z,11.90
2022-09-11T15:57:09.464Z,12.85
2022-09-11T15:59:37.841Z,12.43
2022-09-11T16:02:09.120Z,10.82
2022-09-11T16:04:37.530Z,11.68
2022-09-11T16:07:05.847Z,11.50
2022-09-11T16:09:34.497Z,11.70
2022-09-11T16:12:03.521Z,11.55
2022-09-11T16:14:33.301Z,11.65
2022-09-11T16:17:02.355Z,14.15
2022-09-11T16:19:32.308Z,12.27
2022-09-11T16:22:02.066Z,11.80
2022-09-11T16:24:31.530Z,14.00
2022-09-11T16:27:01.620Z,12.75
2022-09-11T16:29:49.330Z,11.95
2022-09-11T16:32:28.510Z,12.32
2022-09-11T16:34:59.878Z,15.25
2022-09-11T16:37:28.584Z,12.95
2022-09-11T16:39:56.990Z,12.13
2022-09-11T16:42:26.495Z,13.27
2022-09-11T16:44:55.015Z,13.15
2022-09-11T16:47:23.340Z,11.18
2022-09-11T16:50:08.446Z,12.90
2022-09-11T16:52:39.063Z,10.05
2022-09-11T16:55:09.400Z,11.15
2022-09-11T16:57:37.902Z,10.45
2022-09-11T17:00:06.832Z,12.05
2022-09-11T17:02:35.190Z,11.13
2022-09-11T17:05:03.694Z,11.40
2022-09-11T17:07:32.037Z,12.40
2022-09-11T17:10:01.823Z,11.85
2022-09-11T17:12:30.189Z,9.77
2022-09-11T17:14:58.916Z,9.70
2022-09-11T17:17:27.254Z,11.32
2022-09-11T17:19:57.728Z,10.35
2022-09-11T17:22:26.180Z,10.82
2022-09-11T17:24:54.573Z,9.48
2022-09-11T17:27:24.401Z,9.90
2022-09-11T17:29:52.737Z,9.90
2022-09-11T17:32:28.382Z,12.15
2022-09-11T17:34:58.135Z,13.80
2022-09-11T17:37:27.710Z,10.88
2022-09-11T17:39:56.205Z,9.75
2022-09-11T17:42:26.638Z,9.90
2022-09-11T17:44:55.013Z,10.73
2022-09-11T17:47:23.341Z,11.52
2022-09-11T17:49:51.733Z,10.30
2022-09-11T17:52:20.395Z,10.85
2022-09-11T17:54:49.038Z,11.43
2022-09-11T17:57:17.359Z,11.65
2022-09-11T17:59:48.927Z,12.15
2022-09-11T18:02:18.198Z,12.90
2022-09-11T18:04:46.629Z,10.10
2022-09-11T18:07:15.025Z,10.65
2022-09-11T18:09:43.470Z,11.50
2022-09-11T18:12:12.230Z,10.50
2022-09-11T18:14:42.980Z,11.18
2022-09-11T18:17:12.759Z,13.02
2022-09-11T18:19:41.174Z,11.45
2022-09-11T18:22:10.055Z,12.48
2022-09-11T18:24:39.807Z,13.30
2022-09-11T18:27:09.987Z,13.10
2022-09-11T18:29:39.918Z,16.02
2022-09-11T18:32:10.252Z,14.38
2022-09-11T18:34:40.422Z,15.07
2022-09-11T18:37:08.827Z,13.00
2022-09-11T18:39:38.483Z,12.18
2022-09-11T18:42:07.523Z,14.10
2022-09-11T18:44:35.967Z,11.88
2022-09-11T18:47:04.374Z,11.27
2022-09-11T18:49:33.667Z,11.70
2022-09-11T18:52:03.588Z,12.07
2022-09-11T18:54:33.631Z,12.50
2022-09-11T18:57:03.426Z,12.77
2022-09-11T18:59:31.946Z,12.95
2022-09-11T19:02:01.129Z,12.52
2022-09-11T19:04:29.602Z,15.32
2022-09-11T19:06:58.013Z,13.07
2022-09-11T19:09:29.301Z,17.00
2022-09-11T19:12:00.222Z,14.10
2022-09-11T19:14:28.888Z,12.70
2022-09-11T19:16:57.846Z,13.50
2022-09-11T19:19:26.264Z,13.43
2022-09-11T19:21:54.628Z,12.90
2022-09-11T19:24:28.170Z,12.52
2022-09-11T19:27:00.215Z,14.57
2022-09-11T19:29:28.717Z,13.52
2022-09-11T19:31:57.037Z,14.38
2022-09-11T19:34:25.417Z,13.10
2022-09-11T19:36:53.762Z,13.90
2022-09-11T19:39:22.553Z,13.70
2022-09-11T19:41:51.757Z,13.10
2022-09-11T19:44:21.658Z,12.93
2022-09-11T19:46:53.402Z,15.70
2022-09-11T19:49:21.926Z,14.48
2022-09-11T19:51:53.058Z,14.25
2022-09-11T19:54:22.417Z,13.65
2022-09-11T19:56:51.151Z,14.30
2022-09-11T19:59:21.137Z,13.93
2022-09-11T20:01:50.060Z,13.80
2022-09-11T20:04:19.143Z,14.38
2022-09-11T20:09:32.207Z,13.90
2022-09-11T20:12:01.544Z,14.57
2022-09-11T20:14:31.648Z,14.60
2022-09-11T20:17:01.054Z,15.13
2022-09-11T20:19:29.646Z,15.80
2022-09-11T20:21:58.152Z,14.70
2022-09-11T20:24:26.627Z,15.48
2022-09-11T20:26:55.289Z,15.70
2022-09-11T20:29:23.934Z,15.57
2022-09-11T20:31:55.139Z,15.60
2022-09-11T20:34:28.048Z,14.95
2022-09-11T20:37:00.616Z,15.13
2022-09-11T20:39:29.488Z,16.55
2022-09-11T20:41:57.973Z,13.98
2022-09-11T20:44:27.090Z,19.85
2022-09-11T20:46:57.702Z,15.77
2022-09-11T20:49:26.762Z,16.95
2022-09-11T20:51:55.081Z,14.43
2022-09-11T20:54:23.451Z,18.20
2022-09-11T20:56:51.751Z,15.95
2022-09-11T20:59:20.117Z,15.05
2022-09-11T21:01:49.282Z,16.30
2022-09-11T21:04:19.315Z,16.75
2022-09-11T21:06:48.638Z,17.10
2022-09-11T21:09:17.361Z,16.77
2022-09-11T21:11:45.866Z,16.65
2022-09-11T21:14:14.783Z,16.52
2022-09-11T21:16:43.230Z,17.42
2022-09-11T21:19:11.768Z,16.35
2022-09-11T21:21:41.665Z,16.48
2022-09-11T21:24:12.198Z,18.33
2022-09-11T21:26:40.578Z,18.15
2022-09-11T21:29:09.631Z,18.60
2022-09-11T21:31:38.078Z,18.25
2022-09-11T21:34:06.732Z,18.73
2022-09-11T21:36:36.707Z,19.75
2022-09-11T21:39:06.605Z,18.80
2022-09-11T21:41:34.955Z,19.10
2022-09-11T21:44:03.725Z,18.58
2022-09-11T21:46:32.172Z,20.85
2022-09-11T21:49:01.731Z,19.70
2022-09-11T21:51:30.094Z,20.08
2022-09-11T21:54:01.664Z,19.00
2022-09-11T21:56:32.396Z,22.08
2022-09-11T21:59:01.211Z,22.65
2022-09-11T22:01:31.652Z,21.27
2022-09-11T22:04:01.134Z,20.65
2022-09-11T22:06:29.615Z,21.85
2022-09-11T22:08:58.000Z,23.10
2022-09-11T22:11:26.524Z,23.98
2022-09-11T22:13:56.257Z,23.73
2022-09-11T22:16:24.776Z,22.75
2022-09-11T22:18:54.484Z,25.65
2022-09-11T22:21:22.991Z,24.25
2022-09-11T22:23:51.696Z,26.30
2022-09-11T22:26:21.249Z,25.65
2022-09-11T22:28:49.623Z,25.42
2022-09-11T22:31:20.858Z,27.50
2022-09-11T22:33:49.242Z,22.55
2022-09-11T22:36:19.203Z,23.00
2022-09-11T22:38:48.661Z,24.60
2022-09-11T22:41:17.461Z,25.73
2022-09-11T22:43:47.499Z,25.85
2022-09-11T22:46:16.140Z,27.02
2022-09-11T22:48:45.853Z,26.38
2022-09-11T22:51:14.417Z,23.52
2022-09-11T22:53:43.313Z,24.27
2022-09-11T22:56:13.727Z,25.33
2022-09-11T22:58:42.186Z,25.42
2022-09-11T23:01:11.471Z,29.80
2022-09-11T23:03:39.972Z,28.08
2022-09-11T23:06:29.292Z,29.77
2022-09-11T23:09:00.417Z,26.05
2022-09-11T23:11:29.648Z,28.92
2022-09-11T23:13:58.704Z,30.63
2022-09-11T23:16:28.112Z,28.75
2022-09-11T23:18:58.710Z,28.88
2022-09-11T23:21:29.439Z,30.30
2022-09-11T23:23:58.753Z,34.47
2022-09-11T23:26:28.237Z,29.77
2022-09-11T23:28:56.816Z,28.35
2022-09-11T23:31:25.927Z,32.40
2022-09-11T23:33:55.458Z,33.35
2022-09-11T23:36:24.416Z,31.85
2022-09-11T23:38:54.693Z,29.95
2022-09-11T23:41:23.295Z,29.73
2022-09-11T23:43:51.641Z,32.30
2022-09-11T23:46:19.957Z,33.20
2022-09-11T23:48:48.452Z,30.48
2022-09-11T23:51:17.107Z,32.65
2022-09-11T23:53:47.652Z,32.13
2022-09-11T23:56:17.357Z,30.85
2022-09-11T23:58:46.652Z,29.92
